Elmhurst, Pennsylvania
Current Conditions -  °F | °C
As of 6:54 AM on Wednesday 28 Jan 2015 (Local Time) from KAVP Reporting Station
Clear Clear  
Wind Chill: -18°   Ceiling: Unl
Heat Index: -12°   Visibility: 10mi
Dew Point: -18°   Wind: 7mph
Humidity: 59%   Direction: 340°NNW
Pressure: 30.06"   Gusts: NA
Location:  41.38°N, 75.54°W
Report Text: KAVP 281154Z 34006KT 10SM CLR M12/M18 A3006 RMK AO2 SLP196 T11171183 11106 21122 53027
Loading
Personal Weather Stations






























Interactive Weather Map New forecast layout! Learn more

10-Day Weather Forecast

Advertisements
Track Severe Weather on mobile